createdAt,value
2018-12-09T00:00:48.228Z,9.30
2018-12-09T00:03:14.881Z,6.93
2018-12-09T00:05:41.485Z,5.73
2018-12-09T00:08:09.733Z,5.33
2018-12-09T00:10:36.439Z,4.77
2018-12-09T00:13:03.040Z,6.50
2018-12-09T00:15:29.676Z,6.30
2018-12-09T00:17:56.333Z,8.33
2018-12-09T00:20:23.059Z,5.60
2018-12-09T00:22:49.701Z,8.87
2018-12-09T00:25:16.448Z,7.27
2018-12-09T00:27:43.076Z,7.50
2018-12-09T00:30:09.736Z,6.40
2018-12-09T00:32:36.348Z,9.60
2018-12-09T00:35:03.203Z,14.60
2018-12-09T00:37:29.817Z,12.37
2018-12-09T00:39:56.483Z,15.43
2018-12-09T00:42:23.340Z,10.07
2018-12-09T00:44:49.964Z,6.60
2018-12-09T00:47:16.700Z,18.00
2018-12-09T00:49:43.342Z,10.87
2018-12-09T00:52:09.980Z,19.30
2018-12-09T00:54:36.592Z,11.00
2018-12-09T00:57:03.350Z,10.73
2018-12-09T00:59:30.072Z,12.93
2018-12-09T01:01:56.680Z,10.63
2018-12-09T01:04:23.376Z,10.90
2018-12-09T01:06:50.011Z,13.93
2018-12-09T01:09:16.665Z,20.80
2018-12-09T01:11:43.276Z,9.13
2018-12-09T01:14:10.856Z,10.77
2018-12-09T01:16:37.494Z,10.53
2018-12-09T01:19:04.108Z,12.90
2018-12-09T01:21:30.777Z,10.67
2018-12-09T01:23:57.414Z,7.83
2018-12-09T01:26:24.359Z,6.87
2018-12-09T01:28:50.992Z,8.43
2018-12-09T01:31:17.597Z,5.87
2018-12-09T01:33:44.276Z,7.87
2018-12-09T01:36:10.880Z,8.83
2018-12-09T01:38:37.519Z,12.90
2018-12-09T01:41:04.197Z,8.57
2018-12-09T01:43:30.837Z,11.00
2018-12-09T01:45:57.597Z,8.30
2018-12-09T01:48:24.226Z,7.00
2018-12-09T01:50:50.948Z,7.93
2018-12-09T01:53:23.734Z,7.13
2018-12-09T01:55:50.372Z,6.03
2018-12-09T01:58:17.015Z,6.73
2018-12-09T02:00:43.644Z,6.30
2018-12-09T02:03:10.695Z,5.50
2018-12-09T02:05:37.321Z,4.37
2018-12-09T02:08:03.955Z,4.50
2018-12-09T02:10:30.556Z,8.27
2018-12-09T02:12:57.264Z,5.23
2018-12-09T02:15:24.301Z,6.93
2018-12-09T02:17:51.009Z,6.83
2018-12-09T02:20:17.653Z,5.77
2018-12-09T02:22:44.321Z,5.70
2018-12-09T02:25:10.968Z,3.07
2018-12-09T02:27:38.016Z,7.50
2018-12-09T02:30:04.800Z,3.50
2018-12-09T02:32:31.436Z,4.50
2018-12-09T02:34:58.065Z,5.47
2018-12-09T02:37:24.828Z,2.60
2018-12-09T02:39:51.606Z,6.40
2018-12-09T02:42:18.302Z,4.10
2018-12-09T02:44:44.992Z,6.20
2018-12-09T02:47:11.632Z,6.40
2018-12-09T02:49:38.273Z,6.33
2018-12-09T02:52:04.920Z,5.67
2018-12-09T02:54:31.656Z,4.10
2018-12-09T02:56:58.297Z,4.73
2018-12-09T02:59:24.934Z,4.07
2018-12-09T03:01:51.544Z,3.97
2018-12-09T03:04:18.210Z,5.60
2018-12-09T03:06:44.880Z,8.40
2018-12-09T03:09:11.592Z,10.70
2018-12-09T03:11:38.220Z,14.43
2018-12-09T03:14:04.852Z,6.30
2018-12-09T03:16:31.509Z,7.60
2018-12-09T03:18:58.125Z,9.37
2018-12-09T03:21:24.782Z,5.87
2018-12-09T03:23:51.508Z,7.43
2018-12-09T03:26:18.268Z,10.37
2018-12-09T03:28:44.962Z,9.30
2018-12-09T03:31:11.957Z,10.67
2018-12-09T03:33:38.561Z,9.60
2018-12-09T03:36:05.234Z,10.70
2018-12-09T03:38:31.968Z,8.97
2018-12-09T03:40:58.608Z,9.20
2018-12-09T03:43:25.526Z,9.63
2018-12-09T03:45:52.209Z,9.50
2018-12-09T03:48:18.835Z,8.00
2018-12-09T03:50:45.444Z,10.63
2018-12-09T03:53:12.380Z,4.10
2018-12-09T03:55:39.172Z,12.10
2018-12-09T03:58:05.896Z,8.20
2018-12-09T04:00:32.547Z,9.77
2018-12-09T04:02:59.179Z,9.30
2018-12-09T04:05:25.794Z,15.53
2018-12-09T04:07:52.471Z,7.23
2018-12-09T04:10:19.411Z,5.43
2018-12-09T04:12:46.043Z,5.73
2018-12-09T04:15:12.708Z,8.17
2018-12-09T04:17:39.526Z,4.43
2018-12-09T04:20:06.316Z,7.20
2018-12-09T04:22:33.018Z,7.57
2018-12-09T04:24:59.853Z,3.70
2018-12-09T04:27:26.488Z,5.80
2018-12-09T04:29:53.126Z,11.27
2018-12-09T04:32:19.775Z,3.47
2018-12-09T04:34:46.508Z,4.77
2018-12-09T04:37:13.113Z,4.00
2018-12-09T04:39:39.779Z,2.60
2018-12-09T04:42:06.424Z,2.73
2018-12-09T04:44:33.064Z,2.83
2018-12-09T04:46:59.712Z,4.60
2018-12-09T04:49:26.624Z,4.00
2018-12-09T04:51:54.313Z,2.50
2018-12-09T04:54:21.057Z,4.83
2018-12-09T04:56:47.703Z,2.80
2018-12-09T04:59:16.076Z,2.33
2018-12-09T05:01:44.589Z,7.70
2018-12-09T05:04:11.605Z,3.40
2018-12-09T05:06:38.230Z,8.90
2018-12-09T05:09:05.703Z,7.83
2018-12-09T05:11:32.340Z,7.23
2018-12-09T05:13:58.948Z,5.70
2018-12-09T05:16:25.586Z,2.63
2018-12-09T05:18:52.195Z,3.90
2018-12-09T05:21:19.090Z,5.30
2018-12-09T05:23:45.816Z,2.33
2018-12-09T05:26:12.422Z,6.03
2018-12-09T05:28:39.116Z,2.33
2018-12-09T05:31:05.721Z,5.27
2018-12-09T05:33:32.333Z,5.53
2018-12-09T05:35:59.037Z,4.57
2018-12-09T05:38:25.645Z,5.80
2018-12-09T05:40:53.419Z,6.87
2018-12-09T05:43:20.187Z,5.00
2018-12-09T05:45:46.822Z,6.40
2018-12-09T05:48:13.447Z,5.03
2018-12-09T05:50:40.106Z,7.20
2018-12-09T05:53:06.792Z,5.77
2018-12-09T05:55:33.481Z,8.40
2018-12-09T05:58:00.120Z,8.13
2018-12-09T06:00:26.732Z,8.40
2018-12-09T06:02:54.324Z,12.47
2018-12-09T06:05:21.064Z,10.40
2018-12-09T06:07:48.212Z,8.77
2018-12-09T06:10:14.844Z,5.73
2018-12-09T06:12:41.488Z,8.67
2018-12-09T06:15:08.164Z,9.00
2018-12-09T06:17:35.053Z,15.10
2018-12-09T06:20:02.236Z,10.87
2018-12-09T06:22:28.843Z,14.00
2018-12-09T06:24:55.504Z,8.33
2018-12-09T06:27:22.140Z,10.70
2018-12-09T06:29:48.769Z,9.50
2018-12-09T06:32:15.421Z,6.87
2018-12-09T06:34:42.363Z,10.30
2018-12-09T06:37:08.974Z,9.47
2018-12-09T06:39:35.640Z,7.37
2018-12-09T06:42:02.285Z,7.40
2018-12-09T06:44:28.928Z,10.00
2018-12-09T06:46:55.560Z,11.13
2018-12-09T06:49:22.192Z,12.50
2018-12-09T06:51:48.936Z,6.77
2018-12-09T06:54:15.607Z,11.37
2018-12-09T06:56:42.261Z,9.67
2018-12-09T06:59:08.900Z,10.20
2018-12-09T07:01:35.505Z,9.23
2018-12-09T07:04:02.124Z,10.63
2018-12-09T07:06:28.750Z,10.90
2018-12-09T07:08:55.357Z,8.60
2018-12-09T07:11:22.056Z,9.37
2018-12-09T07:13:48.688Z,7.37
2018-12-09T07:16:15.329Z,11.83
2018-12-09T07:18:41.973Z,13.03
2018-12-09T07:21:08.583Z,13.33
2018-12-09T07:23:35.252Z,6.40
2018-12-09T07:26:01.884Z,9.10
2018-12-09T07:28:28.516Z,5.90
2018-12-09T07:30:55.556Z,12.40
2018-12-09T07:33:22.213Z,10.43
2018-12-09T07:35:48.857Z,9.70
2018-12-09T07:38:15.496Z,10.13
2018-12-09T07:40:42.248Z,7.73
2018-12-09T07:43:09.041Z,5.30
2018-12-09T07:45:35.673Z,7.17
2018-12-09T07:48:02.297Z,6.90
2018-12-09T07:50:29.005Z,8.10
2018-12-09T07:52:55.689Z,7.73
2018-12-09T07:55:22.376Z,7.40
2018-12-09T07:57:49.014Z,7.90
2018-12-09T08:00:15.656Z,10.03
2018-12-09T08:02:42.293Z,6.70
2018-12-09T08:05:08.929Z,6.83
2018-12-09T08:07:35.569Z,8.60
2018-12-09T08:10:02.444Z,8.97
2018-12-09T08:12:29.052Z,9.60
2018-12-09T08:14:55.688Z,10.47
2018-12-09T08:17:22.328Z,8.60
2018-12-09T08:19:49.064Z,8.57
2018-12-09T08:22:15.701Z,9.50
2018-12-09T08:24:42.308Z,12.50
2018-12-09T08:27:08.953Z,9.20
2018-12-09T08:29:35.625Z,13.23
2018-12-09T08:32:02.285Z,6.60
2018-12-09T08:34:28.920Z,11.77
2018-12-09T08:36:55.540Z,9.43
2018-12-09T08:39:22.168Z,7.87
2018-12-09T08:41:48.816Z,9.20
2018-12-09T08:44:15.452Z,6.53
2018-12-09T08:46:42.202Z,8.40
2018-12-09T08:49:08.841Z,8.03
2018-12-09T08:51:35.473Z,8.80
2018-12-09T08:54:02.808Z,9.03
2018-12-09T08:56:29.672Z,11.00
2018-12-09T08:58:56.325Z,5.67
2018-12-09T09:01:23.061Z,7.90
2018-12-09T09:03:49.678Z,10.90
2018-12-09T09:06:16.342Z,13.37
2018-12-09T09:08:42.972Z,11.47
2018-12-09T09:11:09.717Z,7.67
2018-12-09T09:13:36.352Z,7.83
2018-12-09T09:16:03.049Z,11.30
2018-12-09T09:18:29.659Z,8.40
2018-12-09T09:20:56.293Z,7.53
2018-12-09T09:23:23.024Z,7.63
2018-12-09T09:25:49.725Z,8.83
2018-12-09T09:28:16.398Z,4.87
2018-12-09T09:30:43.016Z,6.90
2018-12-09T09:33:09.689Z,9.83
2018-12-09T09:35:36.293Z,5.67
2018-12-09T09:38:02.930Z,4.07
2018-12-09T09:40:29.547Z,2.60
2018-12-09T09:42:56.194Z,2.57
2018-12-09T09:45:22.800Z,5.27
2018-12-09T09:47:49.413Z,3.33
2018-12-09T09:50:16.094Z,2.93
2018-12-09T09:52:42.714Z,5.00
2018-12-09T09:55:09.462Z,2.40
2018-12-09T09:57:36.106Z,3.33
2018-12-09T10:00:05.088Z,3.40
2018-12-09T10:02:31.689Z,2.10
2018-12-09T10:04:58.328Z,7.43
2018-12-09T10:07:24.959Z,2.20
2018-12-09T10:09:51.573Z,1.10
2018-12-09T10:12:18.237Z,2.17
2018-12-09T10:14:44.848Z,3.00
2018-12-09T10:17:11.452Z,0.90
2018-12-09T10:19:38.089Z,1.47
2018-12-09T10:22:04.722Z,2.73
2018-12-09T10:24:31.405Z,7.93
2018-12-09T10:26:58.089Z,1.63
2018-12-09T10:29:24.735Z,1.70
2018-12-09T10:31:51.436Z,1.17
2018-12-09T10:34:18.068Z,0.70
2018-12-09T10:36:44.755Z,3.60
2018-12-09T10:39:11.357Z,1.63
2018-12-09T10:41:37.985Z,0.70
2018-12-09T10:44:04.669Z,1.17
2018-12-09T10:46:31.299Z,1.17
2018-12-09T10:48:57.929Z,1.17
2018-12-09T10:51:24.568Z,1.27
2018-12-09T10:53:51.214Z,0.90
2018-12-09T10:56:17.849Z,1.00
2018-12-09T10:58:44.480Z,1.47
2018-12-09T11:01:16.881Z,1.33
2018-12-09T11:03:43.535Z,0.77
2018-12-09T11:06:10.145Z,1.10
2018-12-09T11:08:36.886Z,1.23
2018-12-09T11:11:03.649Z,1.20
2018-12-09T11:13:30.756Z,1.80
2018-12-09T11:15:57.389Z,1.47
2018-12-09T11:18:24.013Z,0.90
2018-12-09T11:20:50.644Z,1.23
2018-12-09T11:23:17.303Z,1.43
2018-12-09T11:25:43.995Z,1.27
2018-12-09T11:28:10.620Z,2.30
2018-12-09T11:30:37.267Z,1.50
2018-12-09T11:33:03.897Z,1.57
2018-12-09T11:35:30.535Z,3.53
2018-12-09T11:37:57.166Z,3.33
2018-12-09T11:40:23.801Z,0.80
2018-12-09T11:42:50.668Z,4.23
2018-12-09T11:45:17.392Z,2.33
2018-12-09T11:47:44.029Z,3.43
2018-12-09T11:50:10.868Z,3.33
2018-12-09T11:52:37.485Z,1.50
2018-12-09T11:55:04.242Z,1.67
2018-12-09T11:57:30.880Z,2.17
2018-12-09T11:59:57.532Z,2.10
2018-12-09T12:02:24.140Z,1.43
2018-12-09T12:04:50.807Z,1.50
2018-12-09T12:07:17.412Z,1.83
2018-12-09T12:09:44.027Z,3.20
2018-12-09T12:12:10.740Z,5.13
2018-12-09T12:14:37.468Z,2.80
2018-12-09T12:17:04.081Z,2.97
2018-12-09T12:19:30.744Z,3.53
2018-12-09T12:21:57.385Z,1.80
2018-12-09T12:24:24.137Z,1.10
2018-12-09T12:26:50.769Z,1.97
2018-12-09T12:29:17.409Z,1.40
2018-12-09T12:31:44.016Z,1.70
2018-12-09T12:34:10.653Z,4.30
2018-12-09T12:36:37.317Z,2.03
2018-12-09T12:39:04.809Z,1.80
2018-12-09T12:41:31.970Z,2.20
2018-12-09T12:43:59.076Z,1.17
2018-12-09T12:46:25.736Z,2.97
2018-12-09T12:48:52.434Z,4.43
2018-12-09T12:51:19.093Z,0.80
2018-12-09T12:53:45.874Z,3.13
2018-12-09T12:56:12.518Z,1.27
2018-12-09T12:58:39.120Z,1.03
2018-12-09T13:01:05.752Z,2.40
2018-12-09T13:03:32.387Z,3.33
2018-12-09T13:05:59.256Z,0.97
2018-12-09T13:08:26.044Z,1.20
2018-12-09T13:10:52.732Z,1.37
2018-12-09T13:13:19.373Z,1.43
2018-12-09T13:15:45.982Z,1.27
2018-12-09T13:18:12.625Z,4.30
2018-12-09T13:20:39.281Z,0.50
2018-12-09T13:23:05.915Z,0.57
2018-12-09T13:25:32.544Z,0.87
2018-12-09T13:27:59.229Z,1.57
2018-12-09T13:30:25.937Z,1.27
2018-12-09T13:32:52.578Z,1.60
2018-12-09T13:35:19.189Z,1.37
2018-12-09T13:37:45.849Z,2.07
2018-12-09T13:40:12.453Z,0.70
2018-12-09T13:42:39.143Z,0.80
2018-12-09T13:45:06.288Z,1.10
2018-12-09T13:47:32.893Z,0.70
2018-12-09T13:49:59.519Z,0.60
2018-12-09T13:52:26.125Z,0.93
2018-12-09T13:54:52.756Z,0.60
2018-12-09T13:57:19.376Z,1.07
2018-12-09T13:59:46.013Z,1.23
2018-12-09T14:02:12.638Z,0.60
2018-12-09T14:04:39.237Z,0.70
2018-12-09T14:07:06.268Z,0.60
2018-12-09T14:09:33.389Z,3.70
2018-12-09T14:12:00.501Z,1.80
2018-12-09T14:14:27.277Z,0.50
2018-12-09T14:16:53.985Z,1.23
2018-12-09T14:19:20.935Z,1.80
2018-12-09T14:21:47.560Z,0.60
2018-12-09T14:24:14.182Z,1.70
2018-12-09T14:26:40.812Z,0.70
2018-12-09T14:29:07.468Z,0.77
2018-12-09T14:31:34.361Z,0.80
2018-12-09T14:34:01.008Z,1.23
2018-12-09T14:36:27.694Z,0.73
2018-12-09T14:38:54.392Z,0.77
2018-12-09T14:41:21.226Z,2.23
2018-12-09T14:43:47.868Z,2.20
2018-12-09T14:46:14.742Z,2.60
2018-12-09T14:48:41.456Z,1.33
2018-12-09T14:51:08.096Z,2.50
2018-12-09T14:53:34.741Z,1.00
2018-12-09T14:56:01.775Z,1.47
2018-12-09T14:58:28.405Z,1.43
2018-12-09T15:00:55.062Z,1.53
2018-12-09T15:03:21.692Z,3.50
2018-12-09T15:05:48.320Z,2.97
2018-12-09T15:08:14.972Z,2.77
2018-12-09T15:10:41.585Z,1.43
2018-12-09T15:13:08.403Z,19.80
2018-12-09T15:15:35.096Z,8.80
2018-12-09T15:18:02.515Z,43.83
2018-12-09T15:20:29.126Z,2.07
2018-12-09T15:22:55.740Z,2.80
2018-12-09T15:25:22.478Z,1.37
2018-12-09T15:27:49.118Z,1.20
2018-12-09T15:30:16.628Z,2.10
2018-12-09T15:32:43.961Z,1.20
2018-12-09T15:35:11.125Z,0.70
2018-12-09T15:37:37.816Z,3.23
2018-12-09T15:40:04.561Z,0.60
2018-12-09T15:42:31.195Z,2.13
2018-12-09T15:44:58.421Z,1.53
2018-12-09T15:47:25.188Z,1.30
2018-12-09T15:49:51.800Z,0.80
2018-12-09T15:52:18.427Z,1.80
2018-12-09T15:54:45.118Z,1.43
2018-12-09T15:57:11.745Z,0.83
2018-12-09T15:59:38.357Z,2.20
2018-12-09T16:02:05.033Z,1.60
2018-12-09T16:04:31.768Z,2.80
2018-12-09T16:06:58.373Z,3.23
2018-12-09T16:09:25.004Z,2.13
2018-12-09T16:11:51.681Z,3.43
2018-12-09T16:14:18.324Z,3.17
2018-12-09T16:16:44.928Z,1.00
2018-12-09T16:19:11.563Z,2.10
2018-12-09T16:21:38.172Z,3.10
2018-12-09T16:24:04.796Z,2.63
2018-12-09T16:26:31.400Z,6.53
2018-12-09T16:28:58.964Z,1.17
2018-12-09T16:31:25.889Z,1.93
2018-12-09T16:33:52.589Z,2.30
2018-12-09T16:36:19.944Z,1.77
2018-12-09T16:38:46.756Z,2.80
2018-12-09T16:41:13.735Z,2.10
2018-12-09T16:43:40.549Z,1.70
2018-12-09T16:46:07.191Z,2.60
2018-12-09T16:48:33.828Z,6.93
2018-12-09T16:51:00.805Z,4.37
2018-12-09T16:53:27.613Z,3.13
2018-12-09T16:55:54.261Z,3.73
2018-12-09T16:58:21.114Z,3.90
2018-12-09T17:00:47.773Z,5.60
2018-12-09T17:03:14.383Z,3.33
2018-12-09T17:05:41.010Z,7.17
2018-12-09T17:08:07.655Z,8.13
2018-12-09T17:10:34.284Z,2.90
2018-12-09T17:13:01.247Z,5.47
2018-12-09T17:15:27.881Z,8.20
2018-12-09T17:17:54.484Z,5.80
2018-12-09T17:20:21.116Z,4.23
2018-12-09T17:22:47.814Z,8.40
2018-12-09T17:25:14.572Z,5.10
2018-12-09T17:27:41.226Z,7.77
2018-12-09T17:30:08.021Z,5.77
2018-12-09T17:32:34.757Z,5.50
2018-12-09T17:35:01.597Z,9.73
2018-12-09T17:37:28.332Z,11.00
2018-12-09T17:39:54.965Z,5.00
2018-12-09T17:42:21.630Z,5.07
2018-12-09T17:44:48.268Z,7.47
2018-12-09T17:47:14.900Z,8.30
2018-12-09T17:49:41.529Z,6.50
2018-12-09T17:52:08.132Z,6.83
2018-12-09T17:54:34.738Z,9.23
2018-12-09T17:57:01.458Z,6.57
2018-12-09T17:59:30.050Z,4.27
2018-12-09T18:01:57.304Z,7.20
2018-12-09T18:04:24.041Z,9.20
2018-12-09T18:06:50.646Z,6.53
2018-12-09T18:09:17.312Z,5.40
2018-12-09T18:11:43.960Z,5.90
2018-12-09T18:14:11.140Z,6.43
2018-12-09T18:16:37.947Z,11.60
2018-12-09T18:19:04.597Z,7.43
2018-12-09T18:21:31.648Z,10.97
2018-12-09T18:23:58.493Z,9.53
2018-12-09T18:26:25.118Z,8.63
2018-12-09T18:28:52.012Z,7.30
2018-12-09T18:31:18.860Z,6.53
2018-12-09T18:33:45.693Z,5.23
2018-12-09T18:36:12.652Z,10.37
2018-12-09T18:38:39.779Z,6.63
2018-12-09T18:41:06.593Z,6.40
2018-12-09T18:43:33.228Z,6.53
2018-12-09T18:46:00.112Z,6.40
2018-12-09T18:48:26.916Z,5.77
2018-12-09T18:50:53.860Z,7.97
2018-12-09T18:53:20.604Z,7.83
2018-12-09T18:55:47.379Z,3.10
2018-12-09T18:58:14.093Z,8.37
2018-12-09T19:00:40.728Z,6.00
2018-12-09T19:03:07.364Z,13.23
2018-12-09T19:05:33.999Z,16.40
2018-12-09T19:08:00.692Z,10.17
2018-12-09T19:10:27.300Z,6.70
2018-12-09T19:12:53.937Z,9.83
2018-12-09T19:15:20.618Z,6.03
2018-12-09T19:17:47.253Z,9.10
2018-12-09T19:20:13.863Z,9.60
2018-12-09T19:22:40.599Z,6.90
2018-12-09T19:25:07.425Z,9.93
2018-12-09T19:27:34.060Z,8.87
2018-12-09T19:30:00.712Z,14.40
2018-12-09T19:32:27.379Z,9.00
2018-12-09T19:34:54.084Z,6.60
2018-12-09T19:37:20.720Z,18.23
2018-12-09T19:39:48.071Z,6.70
2018-12-09T19:42:14.709Z,9.27
2018-12-09T19:44:41.405Z,10.90
2018-12-09T19:49:41.190Z,10.80
2018-12-09T19:52:07.920Z,10.17
2018-12-09T19:54:34.561Z,10.57
2018-12-09T19:57:01.322Z,8.50
2018-12-09T19:59:28.122Z,11.70
2018-12-09T20:01:54.741Z,9.60
2018-12-09T20:04:21.435Z,11.47
2018-12-09T20:06:48.172Z,11.63
2018-12-09T20:09:14.838Z,14.27
2018-12-09T20:11:41.494Z,18.60
2018-12-09T20:14:08.193Z,6.67
2018-12-09T20:16:34.836Z,11.00
2018-12-09T20:19:01.469Z,11.83
2018-12-09T20:21:28.073Z,8.47
2018-12-09T20:23:54.747Z,8.77
2018-12-09T20:26:21.353Z,5.73
2018-12-09T20:28:48.155Z,9.80
2018-12-09T20:31:14.798Z,7.80
2018-12-09T20:33:41.412Z,6.27
2018-12-09T20:36:08.049Z,4.90
2018-12-09T20:38:34.667Z,8.23
2018-12-09T20:41:02.231Z,6.03
2018-12-09T20:43:28.880Z,7.23
2018-12-09T20:45:55.525Z,5.87
2018-12-09T20:48:22.156Z,9.30
2018-12-09T20:50:48.802Z,5.50
2018-12-09T20:53:15.404Z,5.50
2018-12-09T20:55:42.033Z,7.23
2018-12-09T20:58:08.641Z,7.70
2018-12-09T21:00:35.276Z,4.93
2018-12-09T21:03:01.881Z,6.57
2018-12-09T21:05:28.521Z,6.03
2018-12-09T21:07:55.184Z,7.73
2018-12-09T21:10:21.904Z,9.17
2018-12-09T21:12:48.552Z,7.53
2018-12-09T21:15:16.112Z,7.50
2018-12-09T21:17:42.712Z,6.83
2018-12-09T21:20:09.489Z,9.07
2018-12-09T21:22:36.133Z,10.20
2018-12-09T21:25:02.800Z,13.97
2018-12-09T21:27:29.507Z,13.67
2018-12-09T21:29:56.148Z,11.40
2018-12-09T21:32:22.780Z,8.43
2018-12-09T21:34:49.489Z,6.90
2018-12-09T21:37:16.169Z,12.17
2018-12-09T21:39:42.782Z,7.90
2018-12-09T21:42:09.416Z,12.27
2018-12-09T21:44:36.075Z,16.47
2018-12-09T21:47:02.752Z,15.97
2018-12-09T21:49:29.360Z,11.17
2018-12-09T21:51:56.048Z,9.67
2018-12-09T21:54:22.688Z,15.87
2018-12-09T21:56:49.379Z,16.97
2018-12-09T21:59:15.984Z,8.47
2018-12-09T22:01:42.660Z,8.73
2018-12-09T22:04:09.301Z,12.33
2018-12-09T22:06:35.908Z,10.70
2018-12-09T22:09:03.179Z,13.43
2018-12-09T22:11:29.988Z,16.40
2018-12-09T22:13:56.633Z,15.07
2018-12-09T22:16:23.313Z,13.37
2018-12-09T22:18:49.920Z,13.37
2018-12-09T22:21:16.648Z,15.37
2018-12-09T22:23:43.462Z,12.77
2018-12-09T22:26:10.125Z,12.00
2018-12-09T22:28:36.738Z,13.37
2018-12-09T22:31:03.357Z,11.63
2018-12-09T22:33:29.989Z,13.13
2018-12-09T22:35:56.676Z,11.17
2018-12-09T22:38:23.709Z,13.73
2018-12-09T22:40:50.418Z,13.73
2018-12-09T22:43:20.930Z,17.70
2018-12-09T22:45:47.597Z,12.97
2018-12-09T22:48:14.329Z,13.83
2018-12-09T22:50:41.813Z,20.43
2018-12-09T22:53:08.561Z,18.10
2018-12-09T22:55:35.270Z,9.03
2018-12-09T22:58:02.327Z,27.07
2018-12-09T23:00:29.022Z,13.50
2018-12-09T23:03:03.197Z,16.60
2018-12-09T23:05:29.889Z,16.97
2018-12-09T23:07:56.557Z,14.53
2018-12-09T23:10:23.288Z,14.60
2018-12-09T23:12:49.930Z,16.97
2018-12-09T23:15:16.803Z,15.83
2018-12-09T23:17:43.420Z,12.53
2018-12-09T23:20:10.183Z,16.93
2018-12-09T23:22:36.897Z,11.23
2018-12-09T23:25:03.953Z,19.40
2018-12-09T23:27:30.582Z,8.00
2018-12-09T23:29:57.232Z,10.33
2018-12-09T23:32:23.836Z,5.50
2018-12-09T23:34:50.468Z,9.20
2018-12-09T23:37:17.134Z,8.10
2018-12-09T23:39:43.857Z,5.73
2018-12-09T23:42:10.820Z,3.50
2018-12-09T23:44:37.742Z,7.47
2018-12-09T23:47:04.417Z,7.50
2018-12-09T23:49:31.044Z,6.30
2018-12-09T23:51:57.692Z,7.00
2018-12-09T23:54:24.308Z,5.37
2018-12-09T23:56:50.975Z,7.87
2018-12-09T23:59:17.571Z,4.80
